Data for 02/25/2017

Time Sea-Level Adjusted Pressure Absolute Pressure Temperature Relative Humidity Dew Point   
(mb) (inHg) (mb) (inHg) (C) (F) (%) (C) (F)
00:05 1017 30.03 846 24.98 -6.3 20.7 89 -7.8 17.9
00:10 1017 30.03 846 24.98 -6.2 20.8 89 -7.8 18
00:15 1017 30.03 846 24.98 -6.2 20.9 89 -7.7 18.2
00:20 1017 30.03 846 24.98 -6.2 20.9 89 -7.7 18.2
00:25 1017 30.03 846 24.98 -6.1 21 89 -7.6 18.3
00:30 1017 30.03 846 24.98 -6.1 21.1 89 -7.6 18.4
00:35 1017 30.03 846 24.98 -6 21.2 89 -7.5 18.5
00:40 1017 30.03 846 24.98 -6 21.2 89 -7.5 18.5
00:45 1017 30.03 846 24.98 -5.9 21.3 90 -7.4 18.7
00:50 1017 30.03 846 24.98 -5.8 21.6 89 -7.3 18.9
00:55 1017 30.03 846 24.98 -5.7 21.7 89 -7.3 18.8
01:00 1016 30 846 24.98 -5.8 21.6 89 -7.3 18.8
01:05 1016 30 846 24.98 -5.8 21.6 89 -7.3 18.8
01:10 1016 30 846 24.98 -5.7 21.7 89 -7.3 18.9
01:15 1016 30 846 24.98 -5.7 21.7 89 -7.3 18.9
01:20 1016 30 846 24.98 -5.8 21.6 88 -7.5 18.6
01:25 1016 30 845 24.95 -5.9 21.3 88 -7.6 18.3
01:30 1016 30 845 24.95 -6.1 20.9 89 -7.7 18.2
01:35 1016 30 845 24.95 -6.2 20.8 89 -7.7 18.2
01:40 1016 30 845 24.95 -6.3 20.6 89 -7.9 17.8
01:45 1016 30 845 24.95 -6.4 20.4 90 -7.9 17.8
01:50 1016 30 845 24.95 -6.5 20.3 89 -8 17.6
01:55 1016 30 845 24.95 -6.5 20.2 90 -8 17.7
02:00 1016 30 845 24.95 -6.5 20.3 90 -7.9 17.7
02:05 1016 30 845 24.95 -6.4 20.5 89 -7.9 17.8
02:10 1016 30 845 24.95 -6.5 20.2 89 -8 17.6
02:15 1016 30 845 24.95 -6.6 20.1 90 -8 17.6
02:20 1016 30 845 24.95 -6.6 20.1 90 -8.1 17.5
02:25 1016 30 845 24.95 -6.6 20.1 90 -8 17.7
02:30 1016 30 845 24.95 -6.5 20.3 90 -7.8 17.9
02:35 1016 30 845 24.95 -6.4 20.4 89 -7.9 17.8
02:40 1016 30 845 24.95 -6.5 20.2 89 -8.1 17.4
02:45 1016 30 845 24.95 -6.6 20.1 89 -8.2 17.3
02:50 1016 30 845 24.95 -6.7 19.9 89 -8.2 17.2
02:55 1016 30 845 24.95 -6.8 19.8 89 -8.3 17
03:00 1016 30 845 24.95 -6.8 19.7 89 -8.4 16.9
03:05 1016 30 845 24.95 -6.8 19.7 89 -8.4 16.9
03:10 1016 30 845 24.95 -6.8 19.7 89 -8.4 16.9
03:15 1016 30 845 24.95 -6.9 19.7 89 -8.4 16.9
03:20 1016 30 845 24.95 -6.8 19.7 89 -8.4 16.9
03:25 1016 30 845 24.95 -6.8 19.7 89 -8.4 16.9
03:30 1016 30 845 24.95 -6.8 19.7 89 -8.4 17
03:35 1016 30 845 24.95 -6.8 19.7 89 -8.4 17
03:40 1016 30 845 24.95 -6.8 19.8 89 -8.3 17
03:45 1016 30 845 24.95 -6.8 19.8 89 -8.3 17
03:50 1016 30 845 24.95 -6.8 19.7 89 -8.4 16.9
03:55 1016 30 845 24.95 -6.8 19.7 89 -8.4 16.9
04:00 1015 29.97 845 24.95 -6.9 19.6 89 -8.4 16.8
04:05 1015 29.97 845 24.95 -6.9 19.6 89 -8.4 16.8
04:10 1015 29.97 845 24.95 -6.9 19.6 89 -8.4 16.8
04:15 1015 29.97 845 24.95 -6.9 19.6 89 -8.4 16.9
04:20 1015 29.97 845 24.95 -6.9 19.6 89 -8.4 16.9
04:25 1015 29.97 845 24.95 -6.9 19.6 89 -8.4 16.8
04:30 1015 29.97 845 24.95 -6.9 19.6 89 -8.4 16.9
04:35 1015 29.97 845 24.95 -6.9 19.7 89 -8.3 17
04:40 1015 29.97 844 24.92 -6.9 19.7 89 -8.3 17
04:45 1015 29.97 844 24.92 -6.9 19.6 89 -8.4 17
04:50 1015 29.97 844 24.92 -6.9 19.6 89 -8.3 17
04:55 1015 29.97 844 24.92 -6.9 19.7 89 -8.3 17
05:00 1015 29.97 844 24.92 -6.9 19.5 89 -8.4 16.8
05:05 1015 29.97 844 24.92 -7 19.4 89 -8.6 16.6
05:10 1015 29.97 844 24.92 -7.1 19.3 89 -8.6 16.6
05:15 1015 29.97 844 24.92 -7.1 19.3 89 -8.6 16.5
05:20 1015 29.97 844 24.92 -7.1 19.3 89 -8.6 16.6
05:25 1015 29.97 844 24.92 -7.1 19.3 89 -8.6 16.6
05:30 1015 29.97 844 24.92 -7.1 19.3 89 -8.6 16.6
05:35 1015 29.97 844 24.92 -7.1 19.3 89 -8.6 16.6
05:40 1015 29.97 844 24.92 -7.1 19.2 89 -8.6 16.6
05:45 1015 29.97 844 24.92 -7.1 19.3 89 -8.6 16.6
05:50 1015 29.97 844 24.92 -7 19.4 89 -8.5 16.7
05:55 1015 29.97 844 24.92 -7 19.4 89 -8.5 16.7
06:00 1015 29.97 844 24.92 -7 19.4 89 -8.5 16.7
06:05 1015 29.97 844 24.92 -7 19.4 89 -8.6 16.6
06:10 1015 29.97 844 24.92 -7.1 19.3 89 -8.6 16.5
06:15 1015 29.97 844 24.92 -7.1 19.3 89 -8.6 16.6
06:20 1015 29.97 844 24.92 -7.1 19.3 89 -8.6 16.5
06:25 1015 29.97 844 24.92 -7.1 19.2 89 -8.7 16.4
06:30 1015 29.97 844 24.92 -7.1 19.2 89 -8.7 16.3
06:35 1015 29.97 844 24.92 -7.2 19.1 88 -8.8 16.2
06:40 1015 29.97 844 24.92 -7.2 19 89 -8.8 16.2
06:45 1015 29.97 844 24.92 -7.3 18.9 88 -8.9 16
06:50 1015 29.97 844 24.92 -7.4 18.7 89 -9 15.9
06:55 1014 29.94 844 24.92 -7.4 18.7 89 -8.9 15.9
07:00 1014 29.94 844 24.92 -7.4 18.7 89 -9 15.9
07:05 1014 29.94 844 24.92 -7.5 18.6 88 -9.1 15.7
07:10 1014 29.94 844 24.92 -7.5 18.5 89 -9.1 15.7
07:15 1014 29.94 844 24.92 -7.5 18.5 88 -9.1 15.7
07:20 1014 29.94 844 24.92 -7.5 18.5 89 -9.1 15.7
07:25 1014 29.94 844 24.92 -7.6 18.4 88 -9.1 15.5
07:30 1014 29.94 844 24.92 -7.6 18.3 88 -9.2 15.5
07:35 1014 29.94 844 24.92 -7.6 18.3 88 -9.2 15.5
07:40 1014 29.94 843 24.89 -7.7 18.2 88 -9.3 15.3
07:45 1014 29.94 843 24.89 -7.6 18.2 89 -9.2 15.4
07:50 1014 29.94 843 24.89 -7.6 18.3 88 -9.2 15.4
07:55 1014 29.94 843 24.89 -7.6 18.3 88 -9.2 15.4
08:00 1014 29.94 843 24.89 -7.5 18.4 88 -9.2 15.5
08:05 1014 29.94 843 24.89 -7.5 18.4 88 -9.2 15.5
08:10 1014 29.94 843 24.89 -7.4 18.6 88 -9.1 15.6
08:15 1014 29.94 843 24.89 -7.3 18.8 88 -9 15.8
08:20 1014 29.94 843 24.89 -7 19.3 87 -8.9 16
08:25 1014 29.94 843 24.89 -6.9 19.6 87 -8.8 16.2
08:30 1014 29.94 843 24.89 -6.8 19.7 86 -8.8 16.2
08:35 1014 29.94 843 24.89 -6.7 19.9 85 -8.8 16.2
08:40 1014 29.94 843 24.89 -6.6 20.1 85 -8.7 16.4
08:45 1014 29.94 843 24.89 -6.4 20.4 85 -8.6 16.5
08:50 1014 29.94 843 24.89 -6.3 20.6 84 -8.6 16.6
08:55 1014 29.94 843 24.89 -6.3 20.6 84 -8.7 16.4
09:00 1014 29.94 843 24.89 -6.4 20.5 83 -8.7 16.3
09:05 1014 29.94 843 24.89 -6.4 20.4 83 -8.8 16.1
09:10 1014 29.94 843 24.89 -6.4 20.4 83 -8.8 16.2
09:15 1014 29.94 843 24.89 -6.3 20.6 83 -8.8 16.2
09:20 1014 29.94 843 24.89 -6.1 21 82 -8.7 16.4
09:25 1014 29.94 843 24.89 -5.3 22.5 79 -8.3 17
09:30 1014 29.94 843 24.89 -4.3 24.2 74 -8.3 17.1
09:35 1014 29.94 843 24.89 -4.4 24 70 -9.1 15.7
09:40 1014 29.94 843 24.89 -4.7 23.6 74 -8.7 16.3
09:45 1014 29.94 843 24.89 -4.6 23.7 71 -9.2 15.5
09:50 1014 29.94 843 24.89 -4.8 23.3 74 -8.8 16.2
09:55 1014 29.94 843 24.89 -4.7 23.5 72 -9 15.8
10:00 1014 29.94 843 24.89 -4.7 23.6 71 -9.1 15.6
10:05 1014 29.94 843 24.89 -4.5 23.8 70 -9.2 15.5
10:10 1014 29.94 843 24.89 -4.4 24.1 69 -9.3 15.3
10:15 1014 29.94 843 24.89 -4.5 23.9 69 -9.4 15.1
10:20 1013 29.91 843 24.89 -4.6 23.7 66 -10 14
10:25 1013 29.91 843 24.89 -4.9 23.2 68 -10 14
10:30 1013 29.91 843 24.89 -5.4 22.3 70 -10 14
10:35 1013 29.91 843 24.89 -5.2 22.7 69 -10.1 13.9
10:40 1013 29.91 842 24.86 -5 23 68 -9.9 14.1
10:45 1013 29.91 843 24.89 -4.3 24.3 67 -9.5 14.9
10:50 1013 29.91 842 24.86 -3.4 25.8 61 -9.9 14.2
10:55 1013 29.91 842 24.86 -3 26.6 60 -9.7 14.6
11:00 1013 29.91 842 24.86 -3.3 26.1 60 -10.1 13.9
11:05 1013 29.91 842 24.86 -3.9 25 58 -11 12.2
11:10 1013 29.91 842 24.86 -3.8 25.1 60 -10.6 13
11:15 1013 29.91 842 24.86 -4.5 24 61 -10.9 12.5
11:20 1013 29.91 842 24.86 -3.4 25.9 55 -11.3 11.7
11:25 1013 29.91 842 24.86 -3 26.5 52 -11.5 11.2
11:30 1013 29.91 842 24.86 -2.4 27.6 51 -11.1 12
11:35 1013 29.91 842 24.86 -2.7 27.2 51 -11.4 11.5
11:40 1013 29.91 842 24.86 -4 24.8 49 -13.2 8.3
11:45 1013 29.91 842 24.86 -4.2 24.5 44 -14.6 5.7
11:50 1012 29.88 842 24.86 -3.8 25.1 43 -14.7 5.5
11:55 1012 29.88 842 24.86 -3.7 25.3 42 -14.9 5.2
12:00 1012 29.88 842 24.86 -3.8 25.2 43 -14.7 5.6
12:05 1012 29.88 842 24.86 -3.5 25.6 39 -15.5 4.1
12:10 1012 29.88 841 24.83 -3 26.5 36 -16.1 2.9
12:15 1012 29.88 841 24.83 -3.5 25.8 37 -16 3.1
12:20 1012 29.88 841 24.83 -3.9 25 40 -15.7 3.7
12:25 1012 29.88 841 24.83 -3.8 25.1 35 -17 1.3
12:30 1012 29.88 841 24.83 -3.6 25.6 34 -17.5 0.6
12:35 1012 29.88 841 24.83 -3.5 25.8 37 -16.3 2.7
12:40 1012 29.88 841 24.83 -3.8 25.1 38 -16.1 3
12:45 1012 29.88 841 24.83 -3.1 26.4 33 -17.1 1.2
12:50 1012 29.88 841 24.83 -3 26.6 34 -16.8 1.8
12:55 1012 29.88 841 24.83 -3.4 25.9 38 -15.8 3.6
13:00 1012 29.88 841 24.83 -3.2 26.2 35 -16.6 2.1
13:05 1011 29.85 841 24.83 -3.6 25.6 35 -16.9 1.5
13:10 1011 29.85 841 24.83 -3.2 26.2 34 -17 1.4
13:15 1011 29.85 841 24.83 -2.9 26.8 35 -16.5 2.3
13:20 1011 29.85 840 24.81 -3 26.6 33 -17.3 0.9
13:25 1011 29.85 840 24.81 -3 26.6 36 -16.1 3.1
13:30 1011 29.85 840 24.81 -3.1 26.5 35 -16.6 2.2
13:35 1011 29.85 840 24.81 -3.2 26.2 36 -16.4 2.5
13:40 1011 29.85 840 24.81 -2.9 26.8 36 -16 3.2
13:45 1011 29.85 840 24.81 -2.8 27 35 -16.1 3
13:50 1011 29.85 840 24.81 -2.7 27.1 37 -15.6 3.9
13:55 1011 29.85 840 24.81 -2.9 26.7 36 -16.1 3.1
14:00 1011 29.85 840 24.81 -2.8 26.9 36 -16 3.2
14:05 1011 29.85 840 24.81 -2.9 26.7 39 -15.1 4.9
14:10 1011 29.85 840 24.81 -3 26.7 40 -14.7 5.5
14:15 1011 29.85 840 24.81 -3 26.5 39 -15.1 4.9
14:20 1011 29.85 840 24.81 -3.2 26.3 40 -14.9 5.2
14:25 1011 29.85 840 24.81 -2.8 26.9 37 -15.6 4
14:30 1011 29.85 840 24.81 -2.6 27.4 38 -14.9 5.2
14:35 1011 29.85 840 24.81 -2.8 26.9 42 -14 6.8
14:40 1010 29.83 840 24.81 -3.1 26.4 41 -14.7 5.5
14:45 1010 29.83 840 24.81 -3.1 26.5 42 -14.3 6.2
14:50 1010 29.83 840 24.81 -2.9 26.7 42 -14.2 6.4
14:55 1010 29.83 840 24.81 -3 26.7 41 -14.4 6.1
15:00 1010 29.83 840 24.81 -2.9 26.7 42 -14.1 6.5
15:05 1010 29.83 840 24.81 -2.9 26.8 42 -14 6.7
15:10 1010 29.83 840 24.81 -3.3 26.1 44 -13.8 7.1
15:15 1010 29.83 840 24.81 -3.2 26.2 42 -14.4 6
15:20 1010 29.83 840 24.81 -3.2 26.3 40 -15 5
15:25 1010 29.83 840 24.81 -3.2 26.2 41 -14.6 5.7
15:30 1010 29.83 839 24.78 -3.3 26.1 45 -13.7 7.3
15:35 1010 29.83 839 24.78 -3 26.6 44 -13.7 7.4
15:40 1010 29.83 839 24.78 -2.5 27.5 43 -13.5 7.7
15:45 1010 29.83 839 24.78 -3.1 26.4 42 -14.4 6.1
15:50 1010 29.83 839 24.78 -2.9 26.7 43 -14 6.9
15:55 1010 29.83 839 24.78 -2.6 27.3 42 -13.9 7
16:00 1010 29.83 839 24.78 -2.7 27.2 39 -14.7 5.5
16:05 1010 29.83 839 24.78 -2.8 27 40 -14.5 6
16:10 1010 29.83 839 24.78 -2.8 26.9 39 -15 5
16:15 1010 29.83 839 24.78 -2.5 27.6 39 -14.8 5.4
16:20 1010 29.83 839 24.78 -2.7 27.2 40 -14.6 5.7
16:25 1010 29.83 839 24.78 -3 26.5 41 -14.5 5.8
16:30 1010 29.83 839 24.78 -3.2 26.3 44 -13.7 7.4
16:35 1010 29.83 839 24.78 -3.2 26.3 46 -13.2 8.2
16:40 1010 29.83 839 24.78 -3.2 26.2 46 -13.3 8.1
16:45 1010 29.83 839 24.78 -3.3 26.1 43 -14.2 6.4
16:50 1010 29.83 839 24.78 -3.5 25.7 45 -13.7 7.3
16:55 1010 29.83 839 24.78 -3.7 25.4 45 -14.1 6.7
17:00 1010 29.83 839 24.78 -3.4 25.8 44 -14 6.8
17:05 1010 29.83 839 24.78 -3.4 26 43 -14.3 6.3
17:10 1010 29.83 839 24.78 -3.2 26.2 43 -14.2 6.5
17:15 1010 29.83 839 24.78 -3 26.6 43 -13.9 7
17:20 1010 29.83 839 24.78 -3 26.7 44 -13.5 7.8
17:25 1010 29.83 839 24.78 -3 26.6 48 -12.5 9.5
17:30 1010 29.83 839 24.78 -3.2 26.2 47 -13.1 8.4
17:35 1010 29.83 839 24.78 -3.4 25.9 46 -13.4 7.9
17:40 1010 29.83 839 24.78 -3.5 25.7 45 -13.8 7.1
17:45 1010 29.83 839 24.78 -3.5 25.7 44 -14.2 6.5
17:50 1010 29.83 839 24.78 -3.6 25.5 47 -13.3 8.1
17:55 1010 29.83 839 24.78 -3.9 25 50 -13 8.7
18:00 1010 29.83 839 24.78 -4.1 24.6 51 -12.9 8.8
18:05 1010 29.83 839 24.78 -4.3 24.2 51 -13.1 8.5
18:10 1010 29.83 839 24.78 -4.4 24.1 51 -13.1 8.5
18:15 1010 29.83 839 24.78 -4.4 24 53 -12.7 9.1
18:20 1010 29.83 839 24.78 -4.4 24.1 51 -13.1 8.4
18:25 1010 29.83 839 24.78 -4.4 24 53 -12.6 9.3
18:30 1010 29.83 839 24.78 -4.5 23.9 51 -13.1 8.5
18:35 1010 29.83 839 24.78 -4.6 23.8 51 -13.2 8.2
18:40 1010 29.83 839 24.78 -4.7 23.5 52 -13.1 8.5
18:45 1010 29.83 839 24.78 -4.8 23.5 51 -13.4 8
18:50 1010 29.83 839 24.78 -4.8 23.4 53 -13.1 8.5
18:55 1010 29.83 839 24.78 -5 23 53 -13.1 8.4
19:00 1010 29.83 839 24.78 -5 23.1 54 -12.9 8.7
19:05 1010 29.83 839 24.78 -4.9 23.2 54 -13 8.7
19:10 1010 29.83 839 24.78 -4.9 23.1 54 -13 8.7
19:15 1010 29.83 839 24.78 -5 23 54 -12.9 8.8
19:20 1010 29.83 839 24.78 -5.1 22.9 53 -13.2 8.3
19:25 1010 29.83 839 24.78 -5.1 22.8 55 -12.9 8.7
19:30 1010 29.83 839 24.78 -5.3 22.6 54 -13.1 8.4
19:35 1010 29.83 839 24.78 -5.4 22.3 56 -12.8 8.9
19:40 1010 29.83 839 24.78 -5.6 21.9 56 -13 8.5
19:45 1010 29.83 839 24.78 -5.8 21.5 57 -13.1 8.4
19:50 1010 29.83 839 24.78 -5.9 21.4 56 -13.4 7.8
19:55 1010 29.83 839 24.78 -5.7 21.8 53 -13.7 7.3
20:00 1010 29.83 839 24.78 -5.6 21.9 54 -13.4 7.9
20:05 1010 29.83 839 24.78 -5.7 21.7 54 -13.5 7.7
20:10 1010 29.83 839 24.78 -5.8 21.5 55 -13.6 7.6
20:15 1010 29.83 839 24.78 -5.9 21.3 54 -13.8 7.2
20:20 1010 29.83 839 24.78 -6 21.3 54 -13.9 6.9
20:25 1010 29.83 839 24.78 -5.8 21.6 52 -14 6.8
20:30 1010 29.83 839 24.78 -5.5 22.1 50 -14.3 6.2
20:35 1010 29.83 839 24.78 -5.4 22.3 50 -14.3 6.3
20:40 1010 29.83 839 24.78 -5.4 22.3 50 -14.3 6.3
20:45 1010 29.83 839 24.78 -5.4 22.3 51 -14.1 6.7
20:50 1010 29.83 839 24.78 -5.5 22.1 52 -14 6.8
20:55 1010 29.83 839 24.78 -5.7 21.8 52 -14.1 6.6
21:00 1010 29.83 839 24.78 -5.8 21.6 52 -14 6.7
21:05 1010 29.83 839 24.78 -5.8 21.6 53 -13.9 7
21:10 1010 29.83 840 24.81 -6.2 20.9 54 -14 6.9
21:15 1010 29.83 839 24.78 -6.3 20.7 56 -13.8 7.2
21:20 1010 29.83 839 24.78 -6.3 20.7 56 -13.7 7.3
21:25 1010 29.83 839 24.78 -6.3 20.7 57 -13.5 7.6
21:30 1010 29.83 839 24.78 -6.3 20.7 56 -13.6 7.5
21:35 1010 29.83 839 24.78 -6.2 20.9 56 -13.6 7.6
21:40 1010 29.83 839 24.78 -6.2 20.8 56 -13.7 7.4
21:45 1010 29.83 839 24.78 -6.2 20.9 55 -13.9 7
21:50 1010 29.83 839 24.78 -6.1 21 55 -13.7 7.4
21:55 1010 29.83 839 24.78 -6.2 20.9 55 -13.7 7.3
22:00 1010 29.83 839 24.78 -6.2 20.9 55 -13.8 7.2
22:05 1010 29.83 839 24.78 -6.2 20.8 55 -13.8 7.2
22:10 1010 29.83 839 24.78 -6.3 20.7 55 -13.9 7
22:15 1010 29.83 839 24.78 -6.4 20.6 55 -14 6.8
22:20 1010 29.83 839 24.78 -6.5 20.4 56 -13.8 7.1
22:25 1010 29.83 840 24.81 -6.6 20.1 57 -13.8 7.1
22:30 1010 29.83 840 24.81 -6.8 19.8 57 -14 6.8
22:35 1010 29.83 840 24.81 -6.8 19.7 57 -14 6.8
22:40 1010 29.83 840 24.81 -6.8 19.7 58 -13.8 7.2
22:45 1010 29.83 840 24.81 -6.8 19.7 57 -14.1 6.7
22:50 1010 29.83 840 24.81 -6.8 19.7 57 -14 6.8
22:55 1010 29.83 840 24.81 -6.9 19.6 57 -14 6.8
23:00 1010 29.83 840 24.81 -6.9 19.6 57 -14.1 6.7
23:05 1010 29.83 840 24.81 -7 19.5 57 -14.2 6.5
23:10 1010 29.83 840 24.81 -7.1 19.3 57 -14.2 6.5
23:15 1010 29.83 840 24.81 -7.2 19.1 58 -14.2 6.4
23:20 1010 29.83 840 24.81 -7.3 18.9 58 -14.1 6.6
23:25 1010 29.83 840 24.81 -7.4 18.7 59 -14.1 6.6
23:30 1010 29.83 840 24.81 -7.4 18.6 59 -14 6.7
23:35 1010 29.83 839 24.78 -7.4 18.6 60 -14 6.8
23:40 1010 29.83 839 24.78 -7.5 18.5 60 -14 6.8
23:45 1010 29.83 839 24.78 -7.5 18.5 60 -14 6.8
23:50 1010 29.83 839 24.78 -7.5 18.5 59 -14.3 6.3
23:55 1010 29.83 839 24.78 -7.4 18.7 57 -14.5 6
24:00 1010 29.83 839 24.78 -7.2 19.1 57 -14.3 6.2